Time;durP1;ratioP1;P1;durP2;ratioP2;P2;SDS_P1;SDS_P2;PMS_P1;PMS_P2;Temp;Humidity;BMP_temperature;BMP_pressure;BME280_temperature;BME280_humidity;BME280_pressure;Samples;Min_cycle;Max_cycle;Signal;HPM_P1;HPM_P2
2023/06/03 00:02:06;;;;;;;2.10;0.70;;;12.50;99.90;;;;;;5092979;28;20491;-84
2023/06/03 00:04:31;;;;;;;2.58;0.82;;;12.50;99.90;;;;;;5093821;28;20051;-83
2023/06/03 00:06:57;;;;;;;4.72;1.10;;;12.50;99.90;;;;;;5093972;28;20048;-84
2023/06/03 00:09:23;;;;;;;2.22;0.85;;;12.40;99.90;;;;;;5092760;28;20048;-82
2023/06/03 00:11:49;;;;;;;3.00;1.08;;;12.40;99.90;;;;;;5092850;28;20055;-85
2023/06/03 00:14:15;;;;;;;1.58;0.80;;;12.40;99.90;;;;;;5093701;28;20087;-85
2023/06/03 00:16:45;;;;;;;2.15;0.98;;;12.30;99.90;;;;;;5093914;28;20108;-84
2023/06/03 00:19:14;;;;;;;3.20;0.80;;;12.20;99.90;;;;;;5093344;28;20079;-84
2023/06/03 00:21:49;;;;;;;2.78;0.82;;;12.20;99.90;;;;;;5092790;28;20044;-84
2023/06/03 00:24:15;;;;;;;3.75;1.00;;;12.10;99.90;;;;;;5092565;28;20127;-84
2023/06/03 00:26:41;;;;;;;4.55;1.35;;;12.10;99.90;;;;;;5092221;28;20040;-84
2023/06/03 00:29:07;;;;;;;2.83;1.15;;;12.00;99.90;;;;;;5092372;28;20047;-84
2023/06/03 00:31:33;;;;;;;2.35;1.10;;;11.90;99.90;;;;;;5093657;28;20119;-80
2023/06/03 00:33:59;;;;;;;3.88;1.15;;;11.90;99.90;;;;;;5093728;28;20426;-84
2023/06/03 00:36:24;;;;;;;2.63;0.90;;;11.80;99.90;;;;;;5093710;28;20048;-84
2023/06/03 00:38:51;;;;;;;2.67;1.42;;;11.80;99.90;;;;;;5092405;28;20047;-84
2023/06/03 00:41:19;;;;;;;4.53;1.10;;;11.70;99.90;;;;;;5092090;28;20104;-83
2023/06/03 00:43:45;;;;;;;3.40;1.52;;;11.70;99.90;;;;;;5093600;28;20047;-84
2023/06/03 00:46:11;;;;;;;2.80;0.90;;;11.60;99.90;;;;;;5092178;28;20498;-85
2023/06/03 00:48:38;;;;;;;4.55;1.05;;;11.60;99.90;;;;;;5092237;28;20048;-85
2023/06/03 00:51:06;;;;;;;1.30;0.70;;;11.50;99.90;;;;;;5092627;28;20079;-85
2023/06/03 00:53:31;;;;;;;1.80;1.00;;;11.50;99.90;;;;;;5093486;28;20483;-85
2023/06/03 00:55:58;;;;;;;2.78;0.95;;;11.40;99.90;;;;;;5092088;28;20070;-84
2023/06/03 00:58:23;;;;;;;3.50;1.10;;;11.40;99.90;;;;;;5092091;28;20040;-84
2023/06/03 01:00:49;;;;;;;3.78;1.30;;;11.30;99.90;;;;;;5092200;28;20040;-85
2023/06/03 01:03:19;;;;;;;3.03;1.00;;;11.30;99.90;;;;;;5094848;28;20052;-85
2023/06/03 01:06:01;;;;;;;3.65;1.17;;;11.20;99.90;;;;;;5097326;28;20054;-84
2023/06/03 01:08:45;;;;;;;4.30;1.77;;;11.20;99.90;;;;;;5097300;28;20108;-85
2023/06/03 01:11:34;;;;;;;3.65;1.02;;;11.20;99.90;;;;;;5097180;28;20425;-84
2023/06/03 01:14:14;;;;;;;2.40;0.60;;;11.20;99.90;;;;;;5097267;28;20487;-85
2023/06/03 01:16:44;;;;;;;3.40;1.10;;;11.10;99.90;;;;;;5095831;28;20062;-85
2023/06/03 01:19:32;;;;;;;2.70;0.95;;;11.10;99.90;;;;;;5096037;28;20036;-85
2023/06/03 01:22:02;;;;;;;3.60;0.90;;;11.10;99.90;;;;;;5097122;28;20044;-85
2023/06/03 01:24:30;;;;;;;2.85;1.00;;;11.00;99.90;;;;;;5096967;28;20487;-85
2023/06/03 01:26:57;;;;;;;4.32;1.20;;;10.90;99.90;;;;;;5096006;28;20054;-84
2023/06/03 01:29:22;;;;;;;5.00;1.00;;;10.90;99.90;;;;;;5095498;28;20471;-84
2023/06/03 01:31:48;;;;;;;3.40;1.00;;;10.90;99.90;;;;;;5096893;28;20058;-84
2023/06/03 01:34:14;;;;;;;2.53;0.85;;;10.80;99.90;;;;;;5095538;28;20093;-84
2023/06/03 01:36:40;;;;;;;3.10;0.95;;;10.80;99.90;;;;;;5096821;28;20036;-84
2023/06/03 01:39:06;;;;;;;1.80;0.80;;;10.80;99.90;;;;;;5096741;28;20044;-84
2023/06/03 01:41:35;;;;;;;4.22;1.35;;;10.80;99.90;;;;;;5096540;28;20471;-83
2023/06/03 01:44:02;;;;;;;4.60;1.00;;;10.70;99.90;;;;;;5095161;28;20063;-84
2023/06/03 01:46:28;;;;;;;2.58;1.10;;;10.60;99.90;;;;;;5095243;28;20048;-84
2023/06/03 01:48:53;;;;;;;4.00;1.00;;;10.60;99.90;;;;;;5096449;28;20036;-84
2023/06/03 01:51:24;;;;;;;8.05;1.17;;;10.60;99.90;;;;;;5095222;28;20051;-84
2023/06/03 01:53:49;;;;;;;3.45;1.00;;;10.60;99.90;;;;;;5096416;28;20040;-84
2023/06/03 01:56:15;;;;;;;3.75;1.20;;;10.50;99.90;;;;;;5094977;28;20047;-84
2023/06/03 01:58:41;;;;;;;4.05;1.17;;;10.60;99.90;;;;;;5095256;28;20051;-84
2023/06/03 02:01:09;;;;;;;1.80;0.80;;;10.50;99.90;;;;;;5096340;28;20050;-84
2023/06/03 02:03:35;;;;;;;4.22;1.00;;;10.50;99.90;;;;;;5095233;28;20132;-83
2023/06/03 02:06:01;;;;;;;2.47;0.90;;;10.50;99.90;;;;;;5095040;28;20123;-83
2023/06/03 02:08:26;;;;;;;4.38;2.10;;;10.50;99.90;;;;;;5094820;28;20471;-83
2023/06/03 02:10:52;;;;;;;7.18;1.30;;;10.50;99.90;;;;;;5095977;28;20047;-83
2023/06/03 02:13:18;;;;;;;2.10;0.80;;;10.50;99.90;;;;;;5094236;28;20044;-84
2023/06/03 02:15:43;;;;;;;3.60;0.80;;;10.50;99.90;;;;;;5095460;28;20036;-83
2023/06/03 02:18:10;;;;;;;3.42;1.00;;;10.50;99.90;;;;;;5095040;28;20425;-84
2023/06/03 02:20:35;;;;;;;2.83;1.10;;;10.50;99.90;;;;;;5095901;28;20536;-84
2023/06/03 02:23:02;;;;;;;3.95;1.00;;;10.50;99.90;;;;;;5094627;28;20052;-84
2023/06/03 02:25:27;;;;;;;3.30;1.02;;;10.50;99.90;;;;;;5094359;28;20514;-85
2023/06/03 02:27:54;;;;;;;2.22;1.08;;;10.50;99.90;;;;;;5095653;28;20036;-84
2023/06/03 02:30:21;;;;;;;3.15;1.10;;;10.50;99.90;;;;;;5095602;28;20487;-83
2023/06/03 02:32:47;;;;;;;3.53;1.10;;;10.40;99.90;;;;;;5094423;28;20044;-84
2023/06/03 02:35:14;;;;;;;2.75;1.13;;;10.40;99.90;;;;;;5094628;28;20040;-83
2023/06/03 02:37:40;;;;;;;1.92;1.00;;;10.40;99.90;;;;;;5094374;28;20082;-84
2023/06/03 02:40:09;;;;;;;3.42;1.08;;;10.40;99.90;;;;;;5095381;28;20040;-84
2023/06/03 02:42:37;;;;;;;2.63;1.10;;;10.40;99.90;;;;;;5095498;28;20060;-84
2023/06/03 02:45:03;;;;;;;2.33;0.98;;;10.40;99.90;;;;;;5094132;28;20048;-83
2023/06/03 02:47:29;;;;;;;2.42;1.00;;;10.30;99.90;;;;;;5094450;28;20048;-84
2023/06/03 02:49:56;;;;;;;3.85;0.90;;;10.30;99.90;;;;;;5094223;28;20044;-84
2023/06/03 02:52:28;;;;;;;3.58;1.20;;;10.30;99.90;;;;;;5094094;28;20114;-84
2023/06/03 02:54:53;;;;;;;3.17;1.20;;;10.30;99.90;;;;;;5094180;28;20098;-83
2023/06/03 02:57:20;;;;;;;2.78;1.20;;;10.20;99.90;;;;;;5094180;28;20503;-84
2023/06/03 02:59:46;;;;;;;2.63;1.20;;;10.20;99.90;;;;;;5094148;28;20052;-84
2023/06/03 03:02:12;;;;;;;2.13;1.10;;;10.20;99.90;;;;;;5095110;28;20039;-84
2023/06/03 03:04:38;;;;;;;4.30;1.00;;;10.20;99.90;;;;;;5094887;28;20372;-84
2023/06/03 03:07:08;;;;;;;3.78;1.20;;;10.10;99.90;;;;;;5093585;28;20071;-84
2023/06/03 03:09:34;;;;;;;3.83;1.08;;;10.10;99.90;;;;;;5093244;28;20410;-84
2023/06/03 03:12:00;;;;;;;2.95;1.10;;;10.20;99.90;;;;;;5093536;28;20123;-83
2023/06/03 03:14:26;;;;;;;4.35;1.67;;;10.10;99.90;;;;;;5094968;28;20044;-84
2023/06/03 03:16:52;;;;;;;2.72;1.15;;;10.10;99.90;;;;;;5093369;28;20055;-84
2023/06/03 03:19:18;;;;;;;2.47;1.00;;;10.10;99.90;;;;;;5094814;28;20048;-84
2023/06/03 03:21:44;;;;;;;4.68;1.20;;;10.20;99.90;;;;;;5093224;28;20055;-84
2023/06/03 03:24:10;;;;;;;3.53;1.27;;;10.10;99.90;;;;;;5094396;28;20048;-84
2023/06/03 03:26:36;;;;;;;4.43;1.00;;;10.20;99.90;;;;;;5092871;28;20479;-84
2023/06/03 03:29:02;;;;;;;3.10;1.20;;;10.20;99.90;;;;;;5093508;28;20040;-84
2023/06/03 03:31:29;;;;;;;2.72;1.00;;;10.20;99.90;;;;;;5094577;28;20548;-84
2023/06/03 03:33:55;;;;;;;3.38;1.30;;;10.10;99.90;;;;;;5092975;28;20522;-84
2023/06/03 03:36:30;;;;;;;3.90;1.02;;;10.20;99.90;;;;;;5093246;28;20044;-84
2023/06/03 03:39:04;;;;;;;2.25;1.10;;;10.20;99.90;;;;;;5094400;28;20066;-84
2023/06/03 03:41:33;;;;;;;3.55;1.17;;;10.20;99.90;;;;;;5094134;28;20100;-84
2023/06/03 03:43:59;;;;;;;4.85;1.10;;;10.20;99.90;;;;;;5094241;28;20087;-84
2023/06/03 03:46:25;;;;;;;2.72;1.20;;;10.30;99.90;;;;;;5094006;28;20048;-83
2023/06/03 03:48:51;;;;;;;1.90;0.80;;;10.30;99.90;;;;;;5093062;28;20051;-83
2023/06/03 03:51:16;;;;;;;2.83;0.93;;;10.30;99.90;;;;;;5094052;28;20113;-83
2023/06/03 03:53:44;;;;;;;3.20;0.90;;;10.30;99.90;;;;;;5092719;28;20058;-83
2023/06/03 03:56:18;;;;;;;2.28;0.80;;;10.30;99.90;;;;;;5093802;28;20448;-85
2023/06/03 03:58:46;;;;;;;1.85;0.88;;;10.40;99.90;;;;;;5093857;28;20083;-84
2023/06/03 04:01:17;;;;;;;6.10;1.40;;;10.30;99.90;;;;;;5093052;28;20048;-83
2023/06/03 04:03:47;;;;;;;3.42;0.98;;;10.40;99.90;;;;;;5094003;28;20048;-83
2023/06/03 04:06:24;;;;;;;2.25;1.00;;;10.40;99.90;;;;;;5093847;28;20123;-83
2023/06/03 04:08:52;;;;;;;1.98;0.90;;;10.50;99.90;;;;;;5092818;28;20145;-83
2023/06/03 04:11:26;;;;;;;4.60;1.25;;;10.60;99.90;;;;;;5092721;28;20044;-84
2023/06/03 04:13:53;;;;;;;4.05;1.10;;;10.70;99.90;;;;;;5092389;28;20052;-84
2023/06/03 04:16:45;;;;;;;4.30;1.38;;;10.80;99.90;;;;;;5092386;28;20376;-84
2023/06/03 04:19:30;;;;;;;2.78;1.30;;;11.00;99.90;;;;;;5092733;28;20480;-83
2023/06/03 04:21:57;;;;;;;3.17;1.08;;;11.10;99.90;;;;;;5093564;28;20044;-83
2023/06/03 04:24:24;;;;;;;3.90;1.20;;;11.30;99.90;;;;;;5092303;28;20105;-84
2023/06/03 04:26:50;;;;;;;6.32;1.15;;;11.40;99.90;;;;;;5093656;28;20047;-84
2023/06/03 04:29:15;;;;;;;1.88;0.70;;;11.50;99.90;;;;;;5092436;28;20115;-83
2023/06/03 04:31:41;;;;;;;2.92;0.85;;;11.60;99.90;;;;;;5092149;28;20127;-83
2023/06/03 04:34:07;;;;;;;2.35;1.00;;;11.70;99.90;;;;;;5092446;28;20101;-83
2023/06/03 04:36:32;;;;;;;3.35;1.10;;;11.70;99.90;;;;;;5092244;28;20473;-83
2023/06/03 04:38:58;;;;;;;2.50;0.95;;;11.80;99.90;;;;;;5095988;28;20044;-83
2023/06/03 04:41:27;;;;;;;3.33;0.90;;;11.90;99.90;;;;;;5097687;28;20119;-83
2023/06/03 04:43:54;;;;;;;3.58;1.13;;;11.90;99.90;;;;;;5097692;28;20052;-84
2023/06/03 04:46:21;;;;;;;3.08;1.13;;;12.00;99.90;;;;;;5096085;28;20494;-84
2023/06/03 04:48:57;;;;;;;2.53;0.88;;;12.10;99.90;;;;;;5096191;28;20052;-83
2023/06/03 04:51:24;;;;;;;2.85;1.08;;;12.10;99.90;;;;;;5096457;28;20052;-83
2023/06/03 04:54:00;;;;;;;3.47;1.02;;;12.20;99.90;;;;;;5096172;28;20149;-83
2023/06/03 04:56:30;;;;;;;2.83;0.90;;;12.20;99.90;;;;;;5096167;28;20089;-83
2023/06/03 04:59:03;;;;;;;2.20;0.80;;;12.30;99.90;;;;;;5096095;28;20048;-83
2023/06/03 05:01:31;;;;;;;3.97;0.93;;;12.50;99.90;;;;;;5095985;28;20498;-84
2023/06/03 05:04:02;;;;;;;4.05;1.30;;;12.60;99.90;;;;;;5097438;28;20044;-83
2023/06/03 05:06:32;;;;;;;4.00;1.00;;;12.70;99.90;;;;;;5095816;28;20044;-84
2023/06/03 05:09:01;;;;;;;2.65;1.00;;;12.70;99.90;;;;;;5097197;28;20044;-85
2023/06/03 05:11:27;;;;;;;2.88;1.00;;;12.80;99.90;;;;;;5096032;28;20051;-85
2023/06/03 05:13:52;;;;;;;2.83;1.00;;;12.80;99.90;;;;;;5095906;28;20051;-83
2023/06/03 05:16:18;;;;;;;2.53;0.95;;;13.00;99.90;;;;;;5097236;28;20044;-84
2023/06/03 05:18:45;;;;;;;3.55;1.23;;;13.10;99.90;;;;;;5095950;28;20040;-83
2023/06/03 05:21:11;;;;;;;2.92;1.10;;;13.20;99.90;;;;;;5097046;28;20115;-84
2023/06/03 05:23:36;;;;;;;4.20;1.30;;;13.30;99.90;;;;;;5095664;28;20075;-84
2023/06/03 05:26:02;;;;;;;2.25;0.93;;;13.40;99.90;;;;;;5096888;28;20051;-84
2023/06/03 05:28:28;;;;;;;3.00;1.00;;;13.30;99.90;;;;;;5095620;28;20043;-84
2023/06/03 05:30:54;;;;;;;2.17;1.00;;;13.50;99.90;;;;;;5096847;28;20475;-84
2023/06/03 05:33:23;;;;;;;3.33;1.00;;;13.70;99.90;;;;;;5095438;28;20089;-84
2023/06/03 05:35:49;;;;;;;5.07;1.02;;;13.80;99.90;;;;;;5095272;28;20054;-86
2023/06/03 05:38:15;;;;;;;3.03;1.10;;;14.00;99.90;;;;;;5096669;28;20044;-86
2023/06/03 05:40:40;;;;;;;4.22;1.27;;;14.10;99.90;;;;;;5095488;28;20086;-85
2023/06/03 05:43:09;;;;;;;3.42;1.00;;;14.10;99.90;;;;;;5095092;28;20105;-84
2023/06/03 05:45:35;;;;;;;5.07;1.00;;;14.20;99.90;;;;;;5096398;28;20040;-84
2023/06/03 05:48:01;;;;;;;2.13;0.80;;;14.30;99.90;;;;;;5096440;28;20562;-85
2023/06/03 05:50:29;;;;;;;3.58;0.98;;;14.50;99.90;;;;;;5096434;28;20095;-85
2023/06/03 05:52:55;;;;;;;3.67;1.13;;;14.60;99.90;;;;;;5095016;28;20075;-84
2023/06/03 05:55:30;;;;;;;2.97;1.00;;;14.80;99.90;;;;;;5096260;28;20067;-86
2023/06/03 05:57:56;;;;;;;3.03;1.10;;;14.90;99.90;;;;;;5095253;28;20043;-85
2023/06/03 06:00:22;;;;;;;3.25;1.48;;;15.00;99.90;;;;;;5097314;28;20097;-83
2023/06/03 06:02:48;;;;;;;2.97;1.00;;;15.00;99.90;;;;;;5098259;28;20391;-84
2023/06/03 06:05:14;;;;;;;2.60;1.10;;;15.20;99.90;;;;;;5115939;28;20039;-86
2023/06/03 06:07:40;;;;;;;1.95;0.98;;;15.20;99.90;;;;;;5097954;28;20047;-85
2023/06/03 06:10:06;;;;;;;2.45;1.00;;;15.10;99.90;;;;;;5086017;28;20048;-84
2023/06/03 06:12:31;;;;;;;4.03;1.08;;;15.40;99.90;;;;;;5077730;28;20110;-84
2023/06/03 06:14:57;;;;;;;3.17;1.20;;;15.50;99.90;;;;;;5077684;28;20089;-85
2023/06/03 06:17:23;;;;;;;3.17;0.90;;;15.70;99.90;;;;;;5077798;28;20492;-85
2023/06/03 06:19:48;;;;;;;3.63;1.08;;;15.80;99.90;;;;;;5077580;28;20052;-84
2023/06/03 06:22:14;;;;;;;2.60;0.80;;;15.60;99.90;;;;;;5095529;28;20399;-85
2023/06/03 06:24:41;;;;;;;3.13;1.17;;;15.40;99.90;;;;;;5077545;28;20478;-85
2023/06/03 06:27:07;;;;;;;2.80;1.10;;;15.30;99.90;;;;;;5095496;28;20047;-85
2023/06/03 06:29:39;;;;;;;4.57;0.82;;;15.10;99.90;;;;;;5095503;28;20048;-86
2023/06/03 06:32:05;;;;;;;3.10;1.35;;;15.00;99.90;;;;;;5077145;28;20048;-83
2023/06/03 06:34:33;;;;;;;2.72;1.13;;;14.80;99.90;;;;;;5095348;28;20131;-84
2023/06/03 06:36:59;;;;;;;5.28;1.13;;;14.70;99.90;;;;;;5077292;28;20131;-83
2023/06/03 06:39:34;;;;;;;2.95;0.90;;;14.70;99.90;;;;;;5076990;28;20471;-83
2023/06/03 06:42:17;;;;;;;2.60;0.90;;;14.60;99.90;;;;;;5094931;28;20527;-82
2023/06/03 06:44:47;;;;;;;4.20;1.00;;;14.50;99.90;;;;;;5095411;28;20059;-83
2023/06/03 06:47:20;;;;;;;4.63;0.82;;;14.60;99.90;;;;;;5095573;28;20036;-83
2023/06/03 06:49:47;;;;;;;3.60;1.23;;;14.50;99.90;;;;;;5077074;28;20048;-75
2023/06/03 06:52:14;;;;;;;3.42;1.20;;;14.50;99.90;;;;;;5076700;28;20383;-84
2023/06/03 06:54:40;;;;;;;2.97;1.17;;;14.50;99.90;;;;;;5077186;28;20067;-84
2023/06/03 06:57:06;;;;;;;3.90;1.02;;;14.50;99.90;;;;;;5076899;28;20531;-84
2023/06/03 06:59:33;;;;;;;1.65;0.80;;;14.50;99.90;;;;;;5076260;28;20131;-86
2023/06/03 07:01:59;;;;;;;3.63;1.27;;;14.50;99.90;;;;;;5076601;28;20036;-83
2023/06/03 07:04:25;;;;;;;3.70;0.93;;;14.50;99.90;;;;;;5094615;28;20048;-84
2023/06/03 07:06:50;;;;;;;3.25;1.00;;;14.60;99.90;;;;;;5094712;28;20108;-85
2023/06/03 07:09:16;;;;;;;4.20;1.15;;;14.70;99.90;;;;;;5094952;28;20043;-85
2023/06/03 07:11:46;;;;;;;4.88;1.10;;;15.00;99.90;;;;;;5076481;28;20044;-85
2023/06/03 07:14:13;;;;;;;5.78;1.05;;;15.10;99.90;;;;;;5076548;28;20043;-85
2023/06/03 07:16:41;;;;;;;3.50;0.98;;;15.30;99.90;;;;;;5094570;28;20044;-86
2023/06/03 07:19:06;;;;;;;3.55;1.02;;;15.50;99.90;;;;;;5094715;28;20039;-85
2023/06/03 07:21:33;;;;;;;3.20;1.10;;;15.80;99.90;;;;;;5076225;28;20384;-85
2023/06/03 07:23:59;;;;;;;2.75;1.05;;;15.90;99.90;;;;;;5076561;28;20441;-87
2023/06/03 07:26:27;;;;;;;2.42;0.95;;;16.10;99.90;;;;;;5076021;28;20104;-86
2023/06/03 07:28:56;;;;;;;3.33;0.80;;;16.30;99.90;;;;;;5094234;28;20060;-85
2023/06/03 07:31:22;;;;;;;4.25;1.13;;;16.50;99.90;;;;;;5075964;28;20118;-84
2023/06/03 07:33:54;;;;;;;4.85;0.93;;;16.70;99.90;;;;;;5094032;28;20169;-86
2023/06/03 07:36:21;;;;;;;2.37;0.97;;;16.90;99.90;;;;;;5076277;28;20051;-84
2023/06/03 07:38:59;;;;;;;4.20;0.80;;;17.20;99.90;;;;;;5094045;28;20491;-84
2023/06/03 07:41:32;;;;;;;2.20;0.77;;;17.50;99.90;;;;;;5075957;28;20052;-85
2023/06/03 07:43:58;;;;;;;2.63;0.70;;;17.70;99.90;;;;;;5076068;28;20051;-83
2023/06/03 07:46:39;;;;;;;4.55;1.00;;;17.90;99.90;;;;;;5075704;28;20052;-85
2023/06/03 07:49:08;;;;;;;3.63;0.80;;;18.20;99.90;;;;;;5094172;28;20044;-85
2023/06/03 07:51:34;;;;;;;4.50;0.95;;;17.80;99.90;;;;;;5075713;28;20087;-87
2023/06/03 07:54:02;;;;;;;2.15;0.60;;;18.00;99.90;;;;;;5075838;28;20483;-86
2023/06/03 07:56:28;;;;;;;3.22;0.90;;;18.30;99.90;;;;;;5075655;28;20048;-86
2023/06/03 07:58:54;;;;;;;2.50;0.75;;;18.50;99.90;;;;;;5075500;28;20046;-87
2023/06/03 08:01:24;;;;;;;4.65;0.93;;;18.70;99.90;;;;;;5075604;28;20056;-85
2023/06/03 08:03:51;;;;;;;2.15;0.70;;;18.80;99.40;;;;;;5093654;28;20511;-86
2023/06/03 08:06:17;;;;;;;2.55;0.60;;;18.90;99.20;;;;;;5093571;28;20044;-85
2023/06/03 08:08:43;;;;;;;2.75;0.73;;;19.00;98.60;;;;;;5075440;28;20108;-77
2023/06/03 08:11:10;;;;;;;2.33;0.70;;;19.10;99.90;;;;;;5093262;28;20134;-76
2023/06/03 08:13:36;;;;;;;3.63;0.85;;;19.20;99.70;;;;;;5075084;28;20040;-76
2023/06/03 08:16:04;;;;;;;3.42;1.20;;;19.30;98.30;;;;;;5093337;28;20579;-78
2023/06/03 08:18:47;;;;;;;2.00;0.70;;;19.50;99.40;;;;;;5093502;28;20499;-85
2023/06/03 08:21:14;;;;;;;3.47;0.98;;;19.70;98.90;;;;;;5093519;28;20050;-78
2023/06/03 08:23:40;;;;;;;3.38;0.90;;;19.80;98.80;;;;;;5075248;28;20675;-77
2023/06/03 08:26:08;;;;;;;4.05;0.90;;;19.70;95.50;;;;;;5093433;28;20035;-76
2023/06/03 08:28:37;;;;;;;2.72;0.80;;;19.90;96.30;;;;;;5075210;28;20048;-75
2023/06/03 08:31:03;;;;;;;1.42;0.50;;;19.90;94.10;;;;;;5093170;28;20418;-76
2023/06/03 08:33:31;;;;;;;1.75;0.80;;;19.90;95.70;;;;;;5075483;28;20044;-83
2023/06/03 08:35:57;;;;;;;3.42;0.90;;;20.00;96.30;;;;;;5093085;28;20040;-85
2023/06/03 08:38:23;;;;;;;2.97;0.90;;;20.00;93.00;;;;;;5075190;28;20048;-85
2023/06/03 08:40:50;;;;;;;3.88;0.88;;;19.90;93.80;;;;;;5075145;28;20097;-82
2023/06/03 08:43:17;;;;;;;2.17;0.70;;;19.70;91.60;;;;;;5093334;28;20056;-76
2023/06/03 08:45:48;;;;;;;4.03;1.35;;;20.00;93.90;;;;;;5093586;28;20051;-75
2023/06/03 08:48:32;;;;;;;1.85;0.68;;;20.40;95.70;;;;;;5093582;28;20044;-82
2023/06/03 08:51:04;;;;;;;2.25;0.77;;;20.40;92.80;;;;;;5093725;28;20119;-84
2023/06/03 08:54:00;;;;;;;2.50;0.90;;;20.40;90.90;;;;;;5075353;28;20055;-84
2023/06/03 08:56:26;;;;;;;2.00;0.77;;;20.40;94.90;;;;;;5072228;28;20140;-84
2023/06/03 08:58:56;;;;;;;1.90;0.77;;;20.20;95.80;;;;;;5093228;28;20040;-84
2023/06/03 09:01:29;;;;;;;3.05;1.33;;;20.50;97.10;;;;;;5093612;28;20055;-84
2023/06/03 09:03:56;;;;;;;2.25;0.80;;;20.20;95.40;;;;;;5093490;28;20127;-83
2023/06/03 09:06:22;;;;;;;2.90;0.80;;;20.20;95.60;;;;;;5093300;28;20048;-84
2023/06/03 09:08:53;;;;;;;2.15;0.80;;;20.10;98.60;;;;;;5074993;28;20051;-83
2023/06/03 09:11:19;;;;;;;2.75;1.00;;;20.30;99.60;;;;;;5093308;28;20043;-84
2023/06/03 09:13:46;;;;;;;3.42;0.75;;;20.70;99.90;;;;;;5093359;28;20047;-83
2023/06/03 09:16:13;;;;;;;3.60;0.70;;;21.00;99.90;;;;;;5074904;28;20052;-85
2023/06/03 09:18:39;;;;;;;2.95;0.93;;;20.40;99.90;;;;;;5084633;28;20543;-84
2023/06/03 09:21:09;;;;;;;2.75;1.00;;;20.10;99.90;;;;;;5113176;28;20375;-83
2023/06/03 09:23:39;;;;;;;2.33;0.95;;;20.30;99.90;;;;;;5096641;28;20044;-85
2023/06/03 09:26:06;;;;;;;3.03;0.80;;;20.50;99.90;;;;;;5099211;28;20052;-84
2023/06/03 09:28:34;;;;;;;3.25;1.02;;;20.60;99.90;;;;;;5099137;28;20097;-84
2023/06/03 09:31:01;;;;;;;2.97;0.90;;;20.90;99.90;;;;;;5117158;28;20039;-86
2023/06/03 09:33:27;;;;;;;3.65;1.00;;;20.90;99.90;;;;;;5099164;28;20048;-83
2023/06/03 09:36:08;;;;;;;4.95;1.20;;;20.90;99.90;;;;;;5117210;28;20478;-85
2023/06/03 09:38:55;;;;;;;3.90;1.10;;;20.90;99.90;;;;;;5117014;28;20039;-85
2023/06/03 09:41:27;;;;;;;4.60;1.48;;;21.00;97.70;;;;;;5116914;28;20044;-84
2023/06/03 09:43:54;;;;;;;2.83;1.20;;;20.40;99.90;;;;;;5098562;28;20066;-85
2023/06/03 09:46:24;;;;;;;4.70;1.92;;;20.40;99.90;;;;;;5098488;28;20054;-85
2023/06/03 09:48:50;;;;;;;3.65;1.30;;;20.80;99.90;;;;;;5098794;28;20039;-85
2023/06/03 09:51:19;;;;;;;2.55;1.50;;;21.20;99.90;;;;;;5098707;28;20551;-85
2023/06/03 09:53:45;;;;;;;4.10;1.20;;;20.80;99.90;;;;;;5116899;28;20039;-85
2023/06/03 09:56:22;;;;;;;3.58;1.15;;;20.20;99.90;;;;;;5098562;28;20063;-85
2023/06/03 09:58:47;;;;;;;4.55;1.33;;;20.70;99.90;;;;;;5098265;28;20479;-84
2023/06/03 10:01:13;;;;;;;2.83;1.15;;;21.00;99.90;;;;;;5098363;28;20054;-84
2023/06/03 10:03:57;;;;;;;6.95;1.77;;;21.20;99.90;;;;;;5098158;28;20054;-84
2023/06/03 10:06:23;;;;;;;2.90;1.13;;;21.30;99.90;;;;;;5098184;28;20048;-85
2023/06/03 10:08:48;;;;;;;2.85;1.10;;;21.00;99.90;;;;;;5098087;28;20089;-85
2023/06/03 10:11:14;;;;;;;3.30;1.23;;;20.90;99.90;;;;;;5116320;28;20122;-85
2023/06/03 10:13:39;;;;;;;3.65;1.10;;;21.00;99.90;;;;;;5098011;28;20043;-86
2023/06/03 10:16:10;;;;;;;3.15;1.23;;;21.30;99.90;;;;;;5098265;28;20052;-84
2023/06/03 10:18:40;;;;;;;3.88;1.00;;;21.40;99.90;;;;;;5116436;28;20039;-86
2023/06/03 10:21:11;;;;;;;2.22;1.05;;;21.40;99.90;;;;;;5097874;28;20048;-85
2023/06/03 10:23:39;;;;;;;3.95;1.17;;;21.10;99.90;;;;;;5098035;28;20047;-86
2023/06/03 10:26:06;;;;;;;3.95;1.00;;;21.10;99.90;;;;;;5097447;28;20406;-85
2023/06/03 10:28:32;;;;;;;3.70;1.20;;;21.30;99.90;;;;;;5097576;28;20055;-84
2023/06/03 10:31:00;;;;;;;4.30;1.00;;;21.50;99.90;;;;;;5097982;28;20063;-84
2023/06/03 10:33:28;;;;;;;3.88;0.90;;;21.40;99.90;;;;;;5097567;28;20047;-85
2023/06/03 10:35:56;;;;;;;3.97;1.02;;;21.00;99.90;;;;;;5096806;28;20044;-86
2023/06/03 10:38:22;;;;;;;3.00;0.90;;;21.60;99.90;;;;;;5097730;28;20552;-87
2023/06/03 10:40:49;;;;;;;4.45;0.90;;;21.60;99.90;;;;;;5097550;28;20097;-88
2023/06/03 10:43:16;;;;;;;3.33;1.00;;;21.20;99.60;;;;;;5115592;28;20062;-87
2023/06/03 10:45:43;;;;;;;4.47;0.98;;;21.40;99.90;;;;;;5115609;28;20044;-87
2023/06/03 10:48:13;;;;;;;2.88;1.17;;;21.40;99.90;;;;;;5115899;28;20054;-86
2023/06/03 10:51:13;;;;;;;3.42;0.93;;;21.60;99.90;;;;;;5117379;28;20036;-86
2023/06/03 10:53:47;;;;;;;2.85;0.85;;;21.60;99.90;;;;;;5097420;28;20478;-87
2023/06/03 10:56:37;;;;;;;4.53;1.05;;;21.40;99.80;;;;;;5115478;28;20047;-87
2023/06/03 10:59:07;;;;;;;1.85;0.75;;;21.40;99.90;;;;;;5115941;28;20058;-84
2023/06/03 11:02:01;;;;;;;2.35;0.80;;;21.70;99.90;;;;;;5115365;28;20054;-84
2023/06/03 11:04:37;;;;;;;2.75;0.65;;;22.20;99.90;;;;;;5115648;28;20039;-83
2023/06/03 11:07:27;;;;;;;2.42;0.70;;;21.70;99.20;;;;;;5115223;28;20457;-84
2023/06/03 11:09:54;;;;;;;1.10;0.60;;;21.80;94.70;;;;;;5096905;28;20075;-83
2023/06/03 11:12:20;;;;;;;3.00;0.85;;;20.90;94.10;;;;;;5096773;28;20429;-85
2023/06/03 11:14:50;;;;;;;5.65;1.92;;;21.00;94.90;;;;;;5096892;28;20167;-84
2023/06/03 11:17:21;;;;;;;4.68;0.90;;;21.00;94.10;;;;;;5096953;28;20083;-77
2023/06/03 11:19:55;;;;;;;4.10;0.90;;;20.60;96.50;;;;;;5115043;28;20053;-87
2023/06/03 11:22:29;;;;;;;4.18;0.90;;;20.90;92.90;;;;;;5115294;28;20091;-86
2023/06/03 11:24:59;;;;;;;4.80;0.90;;;20.80;94.60;;;;;;5115109;28;20503;-87
2023/06/03 11:27:27;;;;;;;4.20;1.08;;;21.00;98.70;;;;;;5096557;28;20571;-87
2023/06/03 11:29:57;;;;;;;4.72;0.70;;;21.30;97.00;;;;;;5114715;28;20051;-87
2023/06/03 11:32:30;;;;;;;1.88;0.60;;;21.40;94.80;;;;;;5114683;28;20497;-86
2023/06/03 11:34:59;;;;;;;1.83;0.68;;;21.00;92.80;;;;;;5096717;28;20052;-87
2023/06/03 11:37:40;;;;;;;5.95;0.80;;;20.80;94.40;;;;;;5096329;28;20051;-87
2023/06/03 11:40:07;;;;;;;2.83;0.60;;;21.30;97.30;;;;;;5096313;28;20043;-86
2023/06/03 11:42:54;;;;;;;3.67;0.77;;;21.30;94.40;;;;;;5114381;28;20089;-87
2023/06/03 11:45:27;;;;;;;1.40;0.65;;;20.50;93.40;;;;;;5096169;28;20039;-87
2023/06/03 11:48:10;;;;;;;3.42;0.90;;;21.20;96.80;;;;;;5096062;28;20051;-85
2023/06/03 11:50:57;;;;;;;3.03;0.80;;;21.60;95.90;;;;;;5096555;28;20336;-86
2023/06/03 11:53:39;;;;;;;3.85;1.20;;;21.50;96.70;;;;;;5114423;28;20032;-84
2023/06/03 11:56:08;;;;;;;;;;;21.60;99.00;;;;;;5114915;28;20044;-83
2023/06/03 11:58:35;;;;;;;2.67;0.90;;;21.50;95.10;;;;;;5114429;28;19958;-84
2023/06/03 12:01:16;;;;;;;4.80;0.85;;;21.40;94.70;;;;;;5096401;28;20051;-85
2023/06/03 12:03:58;;;;;;;1.67;0.50;;;21.70;98.50;;;;;;5114454;28;20047;-84
2023/06/03 12:06:23;;;;;;;2.75;0.60;;;21.50;92.30;;;;;;5095761;28;20051;-85
2023/06/03 12:08:49;;;;;;;5.10;1.00;;;21.60;95.80;;;;;;5114103;28;20486;-85
2023/06/03 12:11:28;;;;;;;3.40;1.27;;;21.60;90.60;;;;;;5096178;28;20047;-84
2023/06/03 12:13:54;;;;;;;2.60;0.52;;;21.10;90.10;;;;;;5095856;28;20043;-86
2023/06/03 12:16:45;;;;;;;3.92;1.00;;;21.10;93.50;;;;;;5114259;28;20042;-85
2023/06/03 12:19:11;;;;;;;2.92;0.63;;;21.40;92.80;;;;;;5091997;28;20104;-84
2023/06/03 12:21:37;;;;;;;4.20;0.68;;;21.50;94.90;;;;;;5113950;28;20043;-85
2023/06/03 12:24:10;;;;;;;3.35;0.65;;;21.60;94.30;;;;;;5095694;28;20048;-85
2023/06/03 12:26:38;;;;;;;3.35;0.80;;;21.50;91.90;;;;;;5095782;28;20048;-84
2023/06/03 12:29:06;;;;;;;4.40;0.77;;;21.30;91.30;;;;;;5114151;28;20035;-85
2023/06/03 12:31:32;;;;;;;5.18;1.00;;;21.30;92.10;;;;;;5095939;28;20045;-85
2023/06/03 12:33:58;;;;;;;6.60;0.85;;;21.10;91.40;;;;;;5095608;28;20051;-85
2023/06/03 12:36:47;;;;;;;2.53;0.73;;;20.90;93.90;;;;;;5095803;28;20044;-84
2023/06/03 12:39:14;;;;;;;2.67;0.65;;;21.10;87.20;;;;;;5113864;28;20085;-83
2023/06/03 12:41:52;;;;;;;3.00;0.50;;;21.00;90.20;;;;;;5113597;28;20043;-84
2023/06/03 12:44:18;;;;;;;2.53;0.60;;;21.00;91.30;;;;;;5103299;22;20508;-83
2023/06/03 12:46:44;;;;;;;9.48;1.10;;;20.90;88.00;;;;;;5129569;28;20048;-84
2023/06/03 12:49:16;;;;;;;5.10;0.70;;;20.70;89.80;;;;;;5129793;28;20454;-84
2023/06/03 12:51:42;;;;;;;5.95;1.20;;;20.30;84.10;;;;;;5112577;28;20082;-87
2023/06/03 12:54:08;;;;;;;4.40;1.00;;;20.50;91.30;;;;;;5112514;28;20130;-86
2023/06/03 12:56:34;;;;;;;3.63;0.73;;;20.90;90.60;;;;;;5112737;28;20428;-85
2023/06/03 12:59:03;;;;;;;3.85;1.00;;;20.70;87.90;;;;;;5114688;28;20507;-86